createdAt,value
2022-12-18T00:01:17.641Z,22.20
2022-12-18T00:03:45.449Z,18.50
2022-12-18T00:06:15.460Z,9.20
2022-12-18T00:08:43.048Z,8.90
2022-12-18T00:11:13.324Z,8.20
2022-12-18T00:13:40.313Z,8.90
2022-12-18T00:16:13.378Z,8.60
2022-12-18T00:18:41.103Z,8.60
2022-12-18T00:21:11.053Z,8.90
2022-12-18T00:23:38.498Z,8.80
2022-12-18T00:26:09.240Z,8.40
2022-12-18T00:28:35.779Z,8.80
2022-12-18T00:31:06.988Z,8.20
2022-12-18T00:33:34.548Z,7.20
2022-12-18T00:36:05.684Z,8.00
2022-12-18T00:38:34.234Z,8.40
2022-12-18T00:41:00.954Z,8.50
2022-12-18T00:43:28.411Z,7.80
2022-12-18T00:45:55.341Z,7.20
2022-12-18T00:48:22.725Z,6.60
2022-12-18T00:50:50.635Z,8.00
2022-12-18T00:53:17.796Z,7.20
2022-12-18T00:55:44.845Z,6.60
2022-12-18T00:58:14.125Z,7.20
2022-12-18T01:00:40.594Z,7.20
2022-12-18T01:03:15.124Z,6.30
2022-12-18T01:05:44.364Z,7.90
2022-12-18T01:08:11.752Z,7.10
2022-12-18T01:10:41.713Z,8.30
2022-12-18T01:13:08.399Z,7.70
2022-12-18T01:15:35.028Z,8.30
2022-12-18T01:18:01.470Z,8.20
2022-12-18T01:20:27.971Z,6.90
2022-12-18T01:22:54.402Z,8.60
2022-12-18T01:25:20.864Z,7.30
2022-12-18T01:27:47.319Z,6.90
2022-12-18T01:30:13.987Z,7.70
2022-12-18T01:32:40.417Z,7.60
2022-12-18T01:35:07.709Z,7.30
2022-12-18T01:37:34.122Z,7.60
2022-12-18T01:40:00.551Z,5.50
2022-12-18T01:42:27.204Z,7.30
2022-12-18T01:45:10.925Z,6.20
2022-12-18T01:47:48.340Z,5.70
2022-12-18T01:50:18.864Z,6.50
2022-12-18T01:52:55.005Z,6.50
2022-12-18T01:55:24.949Z,7.80
2022-12-18T01:57:55.914Z,7.50
2022-12-18T02:00:23.800Z,7.60
2022-12-18T02:02:51.234Z,7.40
2022-12-18T02:05:43.521Z,6.40
2022-12-18T02:08:27.219Z,7.40
2022-12-18T02:11:19.972Z,7.50
2022-12-18T02:14:01.792Z,7.60
2022-12-18T02:16:45.671Z,8.20
2022-12-18T02:19:30.105Z,7.10
2022-12-18T02:22:23.111Z,7.00
2022-12-18T02:25:22.281Z,6.60
2022-12-18T02:27:51.484Z,6.70
2022-12-18T02:30:18.905Z,6.60
2022-12-18T02:32:50.852Z,6.20
2022-12-18T02:35:25.016Z,6.60
2022-12-18T02:37:57.380Z,5.60
2022-12-18T02:40:27.094Z,7.70
2022-12-18T02:42:53.832Z,6.50
2022-12-18T02:45:21.121Z,6.50
2022-12-18T02:47:50.009Z,6.60
2022-12-18T02:50:37.212Z,7.50
2022-12-18T02:53:34.696Z,5.60
2022-12-18T02:56:19.764Z,5.30
2022-12-18T03:01:34.805Z,5.80
2022-12-18T03:04:09.990Z,5.90
2022-12-18T03:06:58.338Z,6.30
2022-12-18T03:09:36.209Z,5.20
2022-12-18T03:12:26.429Z,6.90
2022-12-18T03:15:03.292Z,7.50
2022-12-18T03:17:32.859Z,8.10
2022-12-18T03:20:04.676Z,7.20
2022-12-18T03:22:34.209Z,7.00
2022-12-18T03:25:04.803Z,7.60
2022-12-18T03:27:34.223Z,7.10
2022-12-18T03:30:11.095Z,6.40
2022-12-18T03:33:02.609Z,7.90
2022-12-18T03:35:36.217Z,7.60
2022-12-18T03:38:04.065Z,7.00
2022-12-18T03:40:52.933Z,6.40
2022-12-18T03:43:50.108Z,6.60
2022-12-18T03:46:26.976Z,5.70
2022-12-18T03:49:00.972Z,6.50
2022-12-18T03:51:47.722Z,6.00
2022-12-18T03:54:15.988Z,6.00
2022-12-18T03:56:56.826Z,6.60
2022-12-18T03:59:26.112Z,7.10
2022-12-18T04:01:56.335Z,6.00
2022-12-18T04:04:26.484Z,6.40
2022-12-18T04:06:53.526Z,6.40
2022-12-18T04:09:21.498Z,6.20
2022-12-18T04:11:48.812Z,6.20
2022-12-18T04:14:18.194Z,5.70
2022-12-18T04:16:46.014Z,5.40
2022-12-18T04:19:14.896Z,4.10
2022-12-18T04:21:42.564Z,7.20
2022-12-18T04:24:10.451Z,7.30
2022-12-18T04:26:37.728Z,6.80
2022-12-18T04:29:12.766Z,6.50
2022-12-18T04:31:39.649Z,6.70
2022-12-18T04:34:06.231Z,6.60
2022-12-18T04:36:37.879Z,6.20
2022-12-18T04:39:04.375Z,6.10
2022-12-18T04:41:31.342Z,6.60
2022-12-18T04:43:58.074Z,7.10
2022-12-18T04:46:24.625Z,7.20
2022-12-18T04:48:51.121Z,6.60
2022-12-18T04:51:20.838Z,6.10
2022-12-18T04:53:51.112Z,5.80
2022-12-18T04:56:18.080Z,6.60
2022-12-18T04:58:45.875Z,5.80
2022-12-18T05:01:14.615Z,4.80
2022-12-18T05:03:42.103Z,6.30
2022-12-18T05:06:09.493Z,5.40
2022-12-18T05:08:36.583Z,5.20
2022-12-18T05:11:06.124Z,6.50
2022-12-18T05:13:33.340Z,7.50
2022-12-18T05:16:00.299Z,7.00
2022-12-18T05:18:27.548Z,6.20
2022-12-18T05:20:54.903Z,7.00
2022-12-18T05:23:23.547Z,6.80
2022-12-18T05:26:01.524Z,7.00
2022-12-18T05:28:30.205Z,5.80
2022-12-18T05:31:00.399Z,7.60
2022-12-18T05:33:31.290Z,6.80
2022-12-18T05:36:00.093Z,7.30
2022-12-18T05:38:28.224Z,7.20
2022-12-18T05:40:55.090Z,5.80
2022-12-18T05:43:22.785Z,6.50
2022-12-18T05:45:50.059Z,6.20
2022-12-18T05:48:17.637Z,6.70
2022-12-18T05:50:48.720Z,6.00
2022-12-18T05:53:17.258Z,6.00
2022-12-18T05:55:44.625Z,6.00
2022-12-18T05:58:13.619Z,5.40
2022-12-18T06:00:43.219Z,5.50
2022-12-18T06:03:11.202Z,6.30
2022-12-18T06:05:43.466Z,6.40
2022-12-18T06:08:11.404Z,6.70
2022-12-18T06:10:38.537Z,6.50
2022-12-18T06:13:06.736Z,6.10
2022-12-18T06:15:33.909Z,6.50
2022-12-18T06:18:01.750Z,6.60
2022-12-18T06:20:33.584Z,7.30
2022-12-18T06:23:01.024Z,6.00
2022-12-18T06:25:27.523Z,6.20
2022-12-18T06:27:54.070Z,5.80
2022-12-18T06:30:21.147Z,6.40
2022-12-18T06:32:53.180Z,6.90
2022-12-18T06:35:25.359Z,6.30
2022-12-18T06:37:51.859Z,6.10
2022-12-18T06:40:18.943Z,6.10
2022-12-18T06:42:45.371Z,6.00
2022-12-18T06:45:12.511Z,5.40
2022-12-18T06:47:39.251Z,6.20
2022-12-18T06:50:06.622Z,6.80
2022-12-18T06:52:34.579Z,5.10
2022-12-18T06:55:01.655Z,7.00
2022-12-18T06:57:28.145Z,7.00
2022-12-18T06:59:54.660Z,7.50
2022-12-18T07:02:21.333Z,7.20
2022-12-18T07:04:47.964Z,7.50
2022-12-18T07:07:15.191Z,7.80
2022-12-18T07:09:41.771Z,7.20
2022-12-18T07:12:09.028Z,7.30
2022-12-18T07:14:35.539Z,8.00
2022-12-18T07:17:02.031Z,7.50
2022-12-18T07:19:28.722Z,8.00
2022-12-18T07:21:55.815Z,7.50
2022-12-18T07:24:22.285Z,7.20
2022-12-18T07:26:49.381Z,7.90
2022-12-18T07:29:16.290Z,6.70
2022-12-18T07:31:43.057Z,7.10
2022-12-18T07:34:13.944Z,7.10
2022-12-18T07:36:40.630Z,7.50
2022-12-18T07:39:07.258Z,6.30
2022-12-18T07:41:34.301Z,6.90
2022-12-18T07:44:12.992Z,7.20
2022-12-18T07:46:39.546Z,6.30
2022-12-18T07:49:06.104Z,7.10
2022-12-18T07:51:32.512Z,8.20
2022-12-18T07:53:58.980Z,8.60
2022-12-18T07:56:27.745Z,7.60
2022-12-18T07:58:56.412Z,7.20
2022-12-18T08:01:22.978Z,7.70
2022-12-18T08:03:50.053Z,8.00
2022-12-18T08:06:19.623Z,8.30
2022-12-18T08:08:49.154Z,7.10
2022-12-18T08:11:16.360Z,8.50
2022-12-18T08:13:43.426Z,7.70
2022-12-18T08:16:10.111Z,7.70
2022-12-18T08:18:38.212Z,7.70
2022-12-18T08:21:13.030Z,8.90
2022-12-18T08:23:43.168Z,7.70
2022-12-18T08:26:11.502Z,6.80
2022-12-18T08:28:38.040Z,8.00
2022-12-18T08:31:05.346Z,8.50
2022-12-18T08:33:32.469Z,7.30
2022-12-18T08:36:00.355Z,7.50
2022-12-18T08:38:27.389Z,7.70
2022-12-18T08:41:01.396Z,7.10
2022-12-18T08:43:47.504Z,6.70
2022-12-18T08:46:17.363Z,6.60
2022-12-18T08:48:44.607Z,7.30
2022-12-18T08:51:11.853Z,8.90
2022-12-18T08:53:39.063Z,9.50
2022-12-18T08:56:06.589Z,9.00
2022-12-18T08:58:33.064Z,9.40
2022-12-18T09:01:07.864Z,8.00
2022-12-18T09:03:34.400Z,9.20
2022-12-18T09:06:01.000Z,8.20
2022-12-18T09:08:28.313Z,9.10
2022-12-18T09:10:55.290Z,8.70
2022-12-18T09:13:22.786Z,9.50
2022-12-18T09:15:52.933Z,9.90
2022-12-18T09:18:21.086Z,8.10
2022-12-18T09:20:48.300Z,8.00
2022-12-18T09:23:15.520Z,8.60
2022-12-18T09:25:41.981Z,7.30
2022-12-18T09:28:16.652Z,7.90
2022-12-18T09:30:46.129Z,7.10
2022-12-18T09:33:12.860Z,7.80
2022-12-18T09:35:40.485Z,8.10
2022-12-18T09:38:08.090Z,9.80
2022-12-18T09:40:40.854Z,8.40
2022-12-18T09:43:11.669Z,7.90
2022-12-18T09:45:45.617Z,8.10
2022-12-18T09:48:21.688Z,7.80
2022-12-18T09:50:49.406Z,8.90
2022-12-18T09:53:22.600Z,8.10
2022-12-18T09:55:49.808Z,8.80
2022-12-18T09:58:25.559Z,8.70
2022-12-18T10:00:54.109Z,8.30
2022-12-18T10:03:20.680Z,7.60
2022-12-18T10:06:12.504Z,8.70
2022-12-18T10:09:17.346Z,7.90
2022-12-18T10:12:04.547Z,8.20
2022-12-18T10:15:02.878Z,6.50
2022-12-18T10:17:38.731Z,6.70
2022-12-18T10:20:39.701Z,7.30
2022-12-18T10:23:20.343Z,5.10
2022-12-18T10:26:05.180Z,8.20
2022-12-18T10:28:36.183Z,9.80
2022-12-18T10:31:03.280Z,8.50
2022-12-18T10:33:33.292Z,9.10
2022-12-18T10:36:00.038Z,8.80
2022-12-18T10:38:32.889Z,8.80
2022-12-18T10:41:00.896Z,9.10
2022-12-18T10:43:36.367Z,8.20
2022-12-18T10:46:08.741Z,9.90
2022-12-18T10:48:47.376Z,8.20
2022-12-18T10:51:21.700Z,8.30
2022-12-18T10:53:55.208Z,8.50
2022-12-18T10:56:22.328Z,7.50
2022-12-18T10:59:21.522Z,8.10
2022-12-18T11:01:57.151Z,8.10
2022-12-18T11:04:29.676Z,8.00
2022-12-18T11:07:05.319Z,7.60
2022-12-18T11:09:37.573Z,7.40
2022-12-18T11:12:17.739Z,7.40
2022-12-18T11:14:50.645Z,8.00
2022-12-18T11:17:29.919Z,7.70
2022-12-18T11:20:02.234Z,7.50
2022-12-18T11:22:31.830Z,7.50
2022-12-18T11:25:32.143Z,6.80
2022-12-18T11:27:59.033Z,8.60
2022-12-18T11:30:34.959Z,9.50
2022-12-18T11:33:10.441Z,9.20
2022-12-18T11:35:49.926Z,8.90
2022-12-18T11:38:24.244Z,7.80
2022-12-18T11:41:48.903Z,9.00
2022-12-18T11:47:08.950Z,7.00
2022-12-18T11:49:37.126Z,9.10
2022-12-18T11:52:40.266Z,8.60
2022-12-18T11:55:16.504Z,8.70
2022-12-18T11:58:05.455Z,8.30
2022-12-18T12:00:32.508Z,8.50
2022-12-18T12:03:08.295Z,6.40
2022-12-18T12:05:56.984Z,8.00
2022-12-18T12:08:36.932Z,8.70
2022-12-18T12:11:29.624Z,7.90
2022-12-18T12:14:25.531Z,8.50
2022-12-18T12:16:59.864Z,6.60
2022-12-18T12:20:00.054Z,7.90
2022-12-18T12:22:26.564Z,9.00
2022-12-18T12:25:05.711Z,8.20
2022-12-18T12:27:47.245Z,8.70
2022-12-18T12:30:25.374Z,9.40
2022-12-18T12:33:19.841Z,9.30
2022-12-18T12:36:04.691Z,8.20
2022-12-18T12:38:55.930Z,9.50
2022-12-18T12:41:46.385Z,9.40
2022-12-18T12:44:22.909Z,9.60
2022-12-18T12:46:52.090Z,8.90
2022-12-18T12:49:21.939Z,9.80
2022-12-18T12:51:59.639Z,8.80
2022-12-18T12:54:28.811Z,8.10
2022-12-18T12:57:10.292Z,8.40
2022-12-18T12:59:50.973Z,8.40
2022-12-18T13:02:31.912Z,6.50
2022-12-18T13:05:01.730Z,7.60
2022-12-18T13:07:46.543Z,7.80
2022-12-18T13:10:23.758Z,7.20
2022-12-18T13:12:57.190Z,7.80
2022-12-18T13:15:40.211Z,8.50
2022-12-18T13:18:15.455Z,9.40
2022-12-18T13:20:46.624Z,10.10
2022-12-18T13:23:23.493Z,10.00
2022-12-18T13:26:27.910Z,8.80
2022-12-18T13:28:58.160Z,9.90
2022-12-18T13:31:30.802Z,9.80
2022-12-18T13:34:26.272Z,8.70
2022-12-18T13:36:55.928Z,9.60
2022-12-18T13:39:30.292Z,9.30
2022-12-18T13:42:07.049Z,9.00
2022-12-18T13:44:41.597Z,8.60
2022-12-18T13:47:29.205Z,8.90
2022-12-18T13:49:56.026Z,9.10
2022-12-18T13:52:26.859Z,9.00
2022-12-18T13:54:59.438Z,10.40
2022-12-18T13:57:39.225Z,7.60
2022-12-18T14:00:29.426Z,7.80
2022-12-18T14:02:58.506Z,8.80
2022-12-18T14:05:30.887Z,8.20
2022-12-18T14:08:03.929Z,9.00
2022-12-18T14:10:48.568Z,7.70
2022-12-18T14:13:36.083Z,10.30
2022-12-18T14:16:05.535Z,10.40
2022-12-18T14:18:46.007Z,9.90
2022-12-18T14:21:24.295Z,10.30
2022-12-18T14:24:05.178Z,10.30
2022-12-18T14:26:34.107Z,9.00
2022-12-18T14:29:21.784Z,10.00
2022-12-18T14:32:07.658Z,10.10
2022-12-18T14:34:37.204Z,10.20
2022-12-18T14:37:04.685Z,9.00
2022-12-18T14:39:31.178Z,9.90
2022-12-18T14:41:57.911Z,9.40
2022-12-18T14:44:24.632Z,10.00
2022-12-18T14:46:51.962Z,9.00
2022-12-18T14:49:34.323Z,9.50
2022-12-18T14:52:03.559Z,8.40
2022-12-18T14:54:32.180Z,9.20
2022-12-18T14:57:03.246Z,9.70
2022-12-18T14:59:30.882Z,8.10
2022-12-18T15:02:11.785Z,10.70
2022-12-18T15:04:41.698Z,11.20
2022-12-18T15:07:15.344Z,10.90
2022-12-18T15:09:45.345Z,12.10
2022-12-18T15:12:42.749Z,10.90
2022-12-18T15:15:35.107Z,11.80
2022-12-18T15:18:04.165Z,10.20
2022-12-18T15:20:40.839Z,11.40
2022-12-18T15:23:29.309Z,9.90
2022-12-18T15:25:58.865Z,10.00
2022-12-18T15:28:49.670Z,12.10
2022-12-18T15:31:18.015Z,10.00
2022-12-18T15:34:01.859Z,11.80
2022-12-18T15:36:37.210Z,9.70
2022-12-18T15:39:06.683Z,11.50
2022-12-18T15:41:36.095Z,10.20
2022-12-18T15:44:04.037Z,8.80
2022-12-18T15:46:31.956Z,11.40
2022-12-18T15:49:02.686Z,10.90
2022-12-18T15:51:37.087Z,11.30
2022-12-18T15:54:07.356Z,11.80
2022-12-18T15:56:52.950Z,10.80
2022-12-18T16:01:53.823Z,10.50
2022-12-18T16:04:22.796Z,9.90
2022-12-18T16:09:37.921Z,10.70
2022-12-18T16:12:05.253Z,10.40
2022-12-18T16:14:32.331Z,9.90
2022-12-18T16:17:04.190Z,11.10
2022-12-18T16:19:31.046Z,10.50
2022-12-18T16:21:59.061Z,9.50
2022-12-18T16:24:28.132Z,11.50
2022-12-18T16:26:55.402Z,9.30
2022-12-18T16:29:28.192Z,10.00
2022-12-18T16:31:59.620Z,9.60
2022-12-18T16:34:32.135Z,8.60
2022-12-18T16:37:06.052Z,10.50
2022-12-18T16:39:35.159Z,11.10
2022-12-18T16:42:07.829Z,10.60
2022-12-18T16:44:34.939Z,10.60
2022-12-18T16:47:03.844Z,10.70
2022-12-18T16:49:30.493Z,10.30
2022-12-18T16:51:56.970Z,9.00
2022-12-18T16:54:23.454Z,10.00
2022-12-18T16:56:51.655Z,9.40
2022-12-18T16:59:18.663Z,8.80
2022-12-18T17:01:45.213Z,9.70
2022-12-18T17:04:11.786Z,9.30
2022-12-18T17:06:43.564Z,10.30
2022-12-18T17:09:21.493Z,10.40
2022-12-18T17:11:47.940Z,9.90
2022-12-18T17:14:16.767Z,9.50
2022-12-18T17:16:43.542Z,9.80
2022-12-18T17:19:16.645Z,8.40
2022-12-18T17:21:47.292Z,9.40
2022-12-18T17:24:14.034Z,9.80
2022-12-18T17:26:40.541Z,6.80
2022-12-18T17:29:06.962Z,9.50
2022-12-18T17:31:34.346Z,9.90
2022-12-18T17:34:03.039Z,10.60
2022-12-18T17:36:32.160Z,11.20
2022-12-18T17:39:01.286Z,9.40
2022-12-18T17:41:29.590Z,10.80
2022-12-18T17:43:58.946Z,9.70
2022-12-18T17:46:26.858Z,9.50
2022-12-18T17:48:55.982Z,11.10
2022-12-18T17:51:23.041Z,8.80
2022-12-18T17:53:49.552Z,9.00
2022-12-18T17:56:18.085Z,9.50
2022-12-18T17:58:45.215Z,9.40
2022-12-18T18:01:17.764Z,8.00
2022-12-18T18:03:45.622Z,8.80
2022-12-18T18:06:15.235Z,8.80
2022-12-18T18:08:42.120Z,8.90
2022-12-18T18:11:31.724Z,6.00
2022-12-18T18:14:02.336Z,9.90
2022-12-18T18:16:39.813Z,10.40
2022-12-18T18:19:10.949Z,9.50
2022-12-18T18:21:43.836Z,9.10
2022-12-18T18:24:12.726Z,8.40
2022-12-18T18:26:41.408Z,9.00
2022-12-18T18:29:08.699Z,9.40
2022-12-18T18:31:38.225Z,9.80
2022-12-18T18:34:08.014Z,10.00
2022-12-18T18:36:34.703Z,8.90
2022-12-18T18:39:02.116Z,8.90
2022-12-18T18:41:30.440Z,8.60
2022-12-18T18:43:58.149Z,8.20
2022-12-18T18:46:25.624Z,7.50
2022-12-18T18:48:52.170Z,8.60
2022-12-18T18:51:21.563Z,7.40
2022-12-18T18:53:50.546Z,8.20
2022-12-18T18:59:07.636Z,8.50
2022-12-18T19:01:34.094Z,7.90
2022-12-18T19:04:00.899Z,8.70
2022-12-18T19:06:28.393Z,7.90
2022-12-18T19:08:56.621Z,7.90
2022-12-18T19:11:43.535Z,8.40
2022-12-18T19:14:12.903Z,5.70
2022-12-18T19:16:39.615Z,7.40
2022-12-18T19:19:06.955Z,6.50
2022-12-18T19:21:34.750Z,7.50
2022-12-18T19:24:02.569Z,6.90
2022-12-18T19:26:29.784Z,7.50
2022-12-18T19:29:04.606Z,6.90
2022-12-18T19:31:35.687Z,6.30
2022-12-18T19:34:04.837Z,7.00
2022-12-18T19:36:33.025Z,9.30
2022-12-18T19:39:01.097Z,7.30
2022-12-18T19:41:31.122Z,8.10
2022-12-18T19:43:59.841Z,7.30
2022-12-18T19:46:26.501Z,8.00
2022-12-18T19:48:53.705Z,7.50
2022-12-18T19:51:24.070Z,6.90
2022-12-18T19:53:57.876Z,8.00
2022-12-18T19:56:27.649Z,7.30
2022-12-18T19:58:55.113Z,7.40
2022-12-18T20:01:24.199Z,7.80
2022-12-18T20:03:53.814Z,7.40
2022-12-18T20:06:28.739Z,7.50
2022-12-18T20:09:00.335Z,7.60
2022-12-18T20:11:29.377Z,7.00
2022-12-18T20:13:56.547Z,6.90
2022-12-18T20:16:23.228Z,7.10
2022-12-18T20:18:49.849Z,8.60
2022-12-18T20:21:16.386Z,8.20
2022-12-18T20:23:43.634Z,7.10
2022-12-18T20:26:10.967Z,8.20
2022-12-18T20:28:40.335Z,8.40
2022-12-18T20:31:13.549Z,7.70
2022-12-18T20:33:42.257Z,6.50
2022-12-18T20:36:15.169Z,6.50
2022-12-18T20:38:42.452Z,6.70
2022-12-18T20:41:17.499Z,6.30
2022-12-18T20:43:45.213Z,7.50
2022-12-18T20:46:15.223Z,7.30
2022-12-18T20:48:42.436Z,7.70
2022-12-18T20:51:12.112Z,7.30
2022-12-18T20:53:41.716Z,6.60
2022-12-18T20:56:11.815Z,8.10
2022-12-18T20:58:38.727Z,9.30
2022-12-18T21:01:14.255Z,7.60
2022-12-18T21:03:42.849Z,8.90
2022-12-18T21:06:10.392Z,8.60
2022-12-18T21:08:38.308Z,7.70
2022-12-18T21:11:35.586Z,9.30
2022-12-18T21:14:03.148Z,6.50
2022-12-18T21:16:30.057Z,8.60
2022-12-18T21:18:56.689Z,8.50
2022-12-18T21:21:27.027Z,6.80
2022-12-18T21:23:54.235Z,8.90
2022-12-18T21:26:24.715Z,9.00
2022-12-18T21:28:56.480Z,6.70
2022-12-18T21:31:25.104Z,8.00
2022-12-18T21:33:51.904Z,7.60
2022-12-18T21:36:21.718Z,9.50
2022-12-18T21:38:48.354Z,10.00
2022-12-18T21:41:38.773Z,9.00
2022-12-18T21:44:11.752Z,9.10
2022-12-18T21:46:44.060Z,10.80
2022-12-18T21:49:12.241Z,8.60
2022-12-18T21:51:39.399Z,8.10
2022-12-18T21:54:05.915Z,7.80
2022-12-18T21:56:55.274Z,6.70
2022-12-18T21:59:25.100Z,7.90
2022-12-18T22:01:53.388Z,8.20
2022-12-18T22:04:20.855Z,8.50
2022-12-18T22:06:48.192Z,9.30
2022-12-18T22:09:18.309Z,9.00
2022-12-18T22:11:47.272Z,8.60
2022-12-18T22:14:14.893Z,6.90
2022-12-18T22:16:42.865Z,9.60
2022-12-18T22:19:11.444Z,10.30
2022-12-18T22:21:40.888Z,9.70
2022-12-18T22:24:13.565Z,10.20
2022-12-18T22:26:40.720Z,10.60
2022-12-18T22:29:29.115Z,9.80
2022-12-18T22:31:56.753Z,9.80
2022-12-18T22:34:23.472Z,10.10
2022-12-18T22:36:50.204Z,13.10
2022-12-18T22:39:23.042Z,10.50
2022-12-18T22:41:49.874Z,8.10
2022-12-18T22:44:18.012Z,9.50
2022-12-18T22:46:50.779Z,9.10
2022-12-18T22:49:32.354Z,9.30
2022-12-18T22:52:00.348Z,9.40
2022-12-18T22:54:26.916Z,8.30
2022-12-18T22:56:53.359Z,8.70
2022-12-18T22:59:23.140Z,9.50
2022-12-18T23:01:52.923Z,7.20
2022-12-18T23:04:34.266Z,10.10
2022-12-18T23:07:07.554Z,9.50
2022-12-18T23:09:34.664Z,10.90
2022-12-18T23:12:01.415Z,10.00
2022-12-18T23:14:29.058Z,10.40
2022-12-18T23:16:56.291Z,9.40
2022-12-18T23:19:23.937Z,10.70
2022-12-18T23:21:51.395Z,10.30
2022-12-18T23:24:18.331Z,10.90
2022-12-18T23:26:45.010Z,9.10
2022-12-18T23:29:11.414Z,9.30
2022-12-18T23:31:39.584Z,8.30
2022-12-18T23:34:08.689Z,10.00
2022-12-18T23:36:45.361Z,8.40
2022-12-18T23:39:26.201Z,8.60
2022-12-18T23:41:56.320Z,9.50
2022-12-18T23:44:22.817Z,7.90
2022-12-18T23:46:49.289Z,10.80
2022-12-18T23:49:16.013Z,11.10
2022-12-18T23:51:42.449Z,10.00
2022-12-18T23:54:09.942Z,10.30
2022-12-18T23:56:36.448Z,9.90
2022-12-18T23:59:03.131Z,10.20
